createdAt,value
2023-02-19T00:20:15.270Z,0.75
2023-02-19T00:34:16.497Z,1.23
2023-02-19T00:37:55.519Z,1.15
2023-02-19T00:52:38.110Z,1.30
2023-02-19T01:55:21.599Z,2.38
2023-02-19T01:58:17.879Z,2.40
2023-02-19T02:00:47.893Z,2.53
2023-02-19T02:03:50.533Z,2.55
2023-02-19T02:07:17.372Z,2.70
2023-02-19T02:10:16.498Z,2.40
2023-02-19T02:13:20.386Z,2.25
2023-02-19T02:16:54.068Z,2.80
2023-02-19T02:28:08.229Z,2.63
2023-02-19T02:31:17.147Z,1.98
2023-02-19T02:33:47.492Z,1.80
2023-02-19T02:36:21.817Z,1.73
2023-02-19T02:38:53.912Z,1.70
2023-02-19T02:41:22.739Z,2.35
2023-02-19T02:43:51.009Z,2.40
2023-02-19T02:49:23.952Z,2.13
2023-02-19T02:55:18.011Z,3.75
2023-02-19T02:57:50.553Z,2.50
2023-02-19T03:00:19.986Z,2.30
2023-02-19T03:02:48.592Z,2.05
2023-02-19T03:05:48.585Z,3.00
2023-02-19T03:08:47.828Z,3.85
2023-02-19T03:11:49.846Z,2.83
2023-02-19T03:17:17.585Z,2.58
2023-02-19T03:20:18.777Z,2.35
2023-02-19T03:22:59.363Z,2.13
2023-02-19T03:25:50.559Z,1.83
2023-02-19T03:28:49.558Z,2.13
2023-02-19T03:31:22.103Z,1.98
2023-02-19T03:33:58.728Z,1.90
2023-02-19T03:42:19.642Z,3.20
2023-02-19T03:45:03.768Z,2.42
2023-02-19T03:47:50.910Z,2.70
2023-02-19T03:51:18.402Z,2.80
2023-02-19T03:54:19.616Z,2.30
2023-02-19T03:57:18.402Z,2.42
2023-02-19T04:00:29.701Z,2.08
2023-02-19T04:03:29.707Z,2.40
2023-02-19T04:06:20.526Z,2.53
2023-02-19T04:09:31.561Z,2.30
2023-02-19T04:11:59.766Z,2.60
2023-02-19T04:18:09.133Z,2.15
2023-02-19T04:20:49.920Z,2.10
2023-02-19T04:23:24.736Z,2.13
2023-02-19T04:26:31.408Z,1.88
2023-02-19T04:29:00.316Z,1.90
2023-02-19T04:31:31.347Z,2.15
2023-02-19T04:34:20.621Z,2.20
2023-02-19T04:36:50.204Z,1.92
2023-02-19T04:41:52.901Z,2.17
2023-02-19T04:44:21.498Z,2.30
2023-02-19T04:46:49.858Z,2.38
2023-02-19T04:49:21.138Z,2.08
2023-02-19T04:54:19.719Z,2.78
2023-02-19T04:56:51.763Z,3.10
2023-02-19T04:59:20.354Z,2.08
2023-02-19T05:01:51.831Z,2.40
2023-02-19T05:06:51.940Z,2.30
2023-02-19T05:09:20.332Z,1.90
2023-02-19T05:11:51.704Z,2.50
2023-02-19T05:16:49.838Z,1.92
2023-02-19T05:19:21.304Z,1.83
2023-02-19T05:24:17.757Z,2.00
2023-02-19T05:26:52.688Z,1.98
2023-02-19T05:29:21.089Z,2.20
2023-02-19T05:31:50.129Z,1.80
2023-02-19T05:34:21.637Z,1.60
2023-02-19T05:39:50.814Z,1.85
2023-02-19T05:42:22.489Z,2.27
2023-02-19T05:47:52.530Z,1.90
2023-02-19T05:50:53.555Z,1.90
2023-02-19T05:53:22.197Z,2.33
2023-02-19T05:58:51.136Z,1.92
2023-02-19T06:04:47.686Z,1.98
2023-02-19T06:07:51.407Z,1.88
2023-02-19T06:15:50.579Z,2.50
2023-02-19T06:27:20.366Z,2.20
2023-02-19T06:29:55.072Z,1.85
2023-02-19T06:32:50.797Z,1.90
2023-02-19T06:35:50.086Z,2.03
2023-02-19T06:38:20.551Z,2.05
2023-02-19T06:40:50.807Z,1.88
2023-02-19T06:46:50.696Z,1.90
2023-02-19T06:52:04.568Z,1.65
2023-02-19T06:54:50.715Z,2.13
2023-02-19T07:00:49.654Z,2.08
2023-02-19T07:03:17.985Z,2.17
2023-02-19T07:05:53.022Z,2.20
2023-02-19T07:14:18.468Z,2.10
2023-02-19T07:16:53.226Z,2.13
2023-02-19T07:19:51.698Z,2.10
2023-02-19T07:22:19.937Z,1.80
2023-02-19T07:24:51.815Z,2.03
2023-02-19T07:27:20.476Z,2.40
2023-02-19T07:29:51.763Z,2.03
2023-02-19T07:32:20.038Z,2.20
2023-02-19T07:34:51.088Z,2.20
2023-02-19T07:43:22.602Z,2.20
2023-02-19T07:45:51.667Z,2.22
2023-02-19T07:48:49.551Z,2.00
2023-02-19T07:54:22.591Z,2.05
2023-02-19T07:56:50.977Z,2.20
2023-02-19T08:02:50.681Z,2.40
2023-02-19T08:05:20.734Z,2.58
2023-02-19T08:07:51.850Z,2.28
2023-02-19T08:13:54.516Z,2.38
2023-02-19T08:16:36.711Z,2.70
2023-02-19T08:19:19.445Z,2.13
2023-02-19T08:21:53.635Z,2.60
2023-02-19T08:24:22.101Z,2.33
2023-02-19T08:26:50.804Z,1.95
2023-02-19T08:29:20.086Z,2.10
2023-02-19T08:31:54.153Z,2.55
2023-02-19T08:34:22.497Z,2.10
2023-02-19T08:36:50.799Z,2.20
2023-02-19T08:39:22.230Z,2.10
2023-02-19T08:41:58.294Z,2.28
2023-02-19T08:44:49.839Z,2.25
2023-02-19T08:47:21.084Z,2.05
2023-02-19T08:49:50.779Z,2.20
2023-02-19T08:52:22.226Z,2.03
2023-02-19T08:54:50.622Z,2.10
2023-02-19T08:57:22.028Z,1.75
2023-02-19T08:59:50.391Z,2.38
2023-02-19T09:02:21.651Z,1.60
2023-02-19T09:04:58.090Z,1.90
2023-02-19T09:07:51.004Z,1.80
2023-02-19T09:10:20.788Z,2.38
2023-02-19T09:15:19.365Z,2.25
2023-02-19T09:17:54.442Z,2.80
2023-02-19T09:20:22.846Z,2.13
2023-02-19T09:22:51.184Z,2.40
2023-02-19T09:25:21.939Z,1.95
2023-02-19T09:27:55.103Z,2.10
2023-02-19T09:30:23.619Z,2.20
2023-02-19T09:32:52.197Z,2.05
2023-02-19T09:35:20.485Z,2.40
2023-02-19T09:37:52.095Z,2.15
2023-02-19T09:42:52.924Z,2.10
2023-02-19T09:45:48.451Z,2.22
2023-02-19T09:48:16.722Z,2.30
2023-02-19T09:50:52.987Z,2.17
2023-02-19T09:53:49.942Z,2.58
2023-02-19T09:56:21.818Z,2.60
2023-02-19T09:58:56.129Z,2.85
2023-02-19T10:01:50.934Z,2.30
2023-02-19T10:04:22.079Z,2.47
2023-02-19T10:06:52.458Z,2.10
2023-02-19T10:09:50.157Z,2.30
2023-02-19T10:12:55.840Z,2.15
2023-02-19T10:15:51.289Z,1.90
2023-02-19T10:21:07.139Z,2.17
2023-02-19T10:23:55.460Z,1.83
2023-02-19T10:26:24.875Z,2.05
2023-02-19T10:28:55.002Z,2.08
2023-02-19T10:31:40.169Z,2.30
2023-02-19T10:34:24.011Z,2.08
2023-02-19T10:36:54.048Z,2.08
2023-02-19T10:39:40.982Z,2.15
2023-02-19T10:42:24.545Z,1.95
2023-02-19T10:47:24.560Z,2.22
2023-02-19T10:49:56.559Z,2.17
2023-02-19T10:52:55.649Z,2.00
2023-02-19T10:56:02.459Z,2.20
2023-02-19T10:58:51.143Z,1.83
2023-02-19T11:01:27.868Z,2.55
2023-02-19T11:04:21.277Z,2.22
2023-02-19T11:06:49.760Z,1.90
2023-02-19T11:09:22.728Z,2.00
2023-02-19T11:11:55.167Z,2.25
2023-02-19T11:14:26.109Z,2.20
2023-02-19T11:17:25.704Z,1.85
2023-02-19T11:23:30.061Z,1.95
2023-02-19T11:30:20.768Z,2.03
2023-02-19T11:33:20.657Z,2.15
2023-02-19T11:36:20.587Z,2.53
2023-02-19T11:39:18.196Z,2.20
2023-02-19T11:42:04.805Z,2.08
2023-02-19T11:45:21.035Z,2.28
2023-02-19T11:48:28.128Z,1.77
2023-02-19T11:55:21.366Z,1.90
2023-02-19T11:58:23.225Z,1.85
2023-02-19T12:04:24.128Z,1.85
2023-02-19T12:07:30.952Z,2.00
2023-02-19T12:14:20.256Z,2.13
2023-02-19T12:17:23.145Z,2.20
2023-02-19T12:20:18.186Z,1.90
2023-02-19T12:23:24.865Z,2.00
2023-02-19T12:27:10.928Z,1.77
2023-02-19T12:30:23.348Z,1.80
2023-02-19T12:37:18.055Z,2.08
2023-02-19T12:40:18.556Z,1.73
2023-02-19T12:43:24.792Z,1.90
2023-02-19T12:46:18.348Z,2.15
2023-02-19T12:49:27.617Z,1.80
2023-02-19T12:52:19.090Z,1.75
2023-02-19T12:55:21.315Z,2.55
2023-02-19T12:58:18.018Z,1.92
2023-02-19T13:01:21.205Z,2.22
2023-02-19T13:07:18.197Z,1.73
2023-02-19T13:09:52.736Z,1.80
2023-02-19T13:15:16.064Z,2.10
2023-02-19T13:18:21.197Z,1.70
2023-02-19T13:20:52.563Z,2.03
2023-02-19T13:23:47.857Z,2.03
2023-02-19T13:27:21.274Z,1.90
2023-02-19T13:30:22.476Z,1.77
2023-02-19T13:33:16.224Z,2.07
2023-02-19T13:36:19.352Z,1.98
2023-02-19T13:39:11.449Z,2.03
2023-02-19T13:42:18.861Z,1.73
2023-02-19T13:44:58.572Z,2.30
2023-02-19T13:51:08.988Z,2.05
2023-02-19T13:54:16.864Z,1.65
2023-02-19T13:56:48.603Z,1.95
2023-02-19T14:00:19.446Z,1.80
2023-02-19T14:03:19.591Z,2.15
2023-02-19T14:06:46.367Z,2.25
2023-02-19T14:09:49.025Z,2.15
2023-02-19T14:12:23.271Z,1.70
2023-02-19T14:15:26.640Z,2.00
2023-02-19T14:18:22.349Z,1.50
2023-02-19T14:20:55.514Z,1.83
2023-02-19T14:23:27.081Z,1.80
2023-02-19T14:26:17.101Z,2.17
2023-02-19T14:28:50.157Z,1.98
2023-02-19T14:31:48.428Z,2.38
2023-02-19T14:34:24.418Z,2.08
2023-02-19T14:37:27.445Z,2.45
2023-02-19T14:40:46.791Z,1.80
2023-02-19T14:43:24.778Z,1.90
2023-02-19T14:46:44.874Z,1.77
2023-02-19T14:49:28.628Z,2.55
2023-02-19T14:52:48.382Z,1.95
2023-02-19T15:02:22.540Z,2.20
2023-02-19T15:05:25.409Z,2.70
2023-02-19T15:08:19.921Z,1.75
2023-02-19T15:10:49.271Z,1.90
2023-02-19T15:15:48.087Z,1.70
2023-02-19T15:18:24.008Z,2.17
2023-02-19T15:21:21.252Z,1.90
2023-02-19T15:23:49.773Z,2.00
2023-02-19T15:26:24.120Z,2.28
2023-02-19T15:29:18.248Z,1.63
2023-02-19T15:31:53.426Z,1.70
2023-02-19T15:36:52.081Z,2.20
2023-02-19T15:42:22.616Z,2.20
2023-02-19T15:45:26.370Z,1.70
2023-02-19T15:48:20.477Z,2.10
2023-02-19T15:51:22.918Z,1.90
2023-02-19T15:54:31.499Z,2.10
2023-02-19T15:57:26.752Z,1.70
2023-02-19T16:00:52.529Z,1.98
2023-02-19T16:03:26.612Z,1.75
2023-02-19T16:06:06.727Z,1.65
2023-02-19T16:12:52.377Z,1.58
2023-02-19T16:22:46.878Z,1.90
2023-02-19T16:25:46.994Z,1.70
2023-02-19T16:28:45.798Z,1.80
2023-02-19T16:31:47.787Z,1.55
2023-02-19T16:37:53.122Z,1.70
2023-02-19T16:44:42.886Z,1.60
2023-02-19T16:47:49.172Z,1.80
2023-02-19T16:50:33.181Z,1.60
2023-02-19T16:53:48.523Z,1.58
2023-02-19T17:40:07.985Z,2.90
2023-02-19T17:42:37.022Z,3.10
2023-02-19T17:45:05.726Z,2.70
2023-02-19T17:48:18.126Z,2.38
2023-02-19T17:51:16.055Z,2.50
2023-02-19T17:54:19.565Z,3.45
2023-02-19T17:57:15.434Z,2.25
2023-02-19T17:59:46.998Z,2.55
2023-02-19T18:02:15.257Z,2.75
2023-02-19T18:07:16.141Z,2.50
2023-02-19T18:13:17.244Z,2.75
2023-02-19T18:15:49.151Z,3.00
2023-02-19T18:18:17.512Z,3.00
2023-02-19T18:21:14.592Z,3.40
2023-02-19T18:24:15.259Z,3.50
2023-02-19T18:27:15.606Z,3.63
2023-02-19T18:30:20.153Z,4.75
2023-02-19T18:32:54.784Z,4.30
2023-02-19T18:42:21.707Z,3.92
2023-02-19T18:48:44.302Z,4.15
2023-02-19T18:51:02.874Z,3.78
2023-02-19T18:53:47.021Z,3.87
2023-02-19T18:56:15.781Z,4.35
2023-02-19T18:58:44.215Z,3.95
2023-02-19T19:04:20.319Z,4.13
2023-02-19T19:07:18.828Z,5.38
2023-02-19T19:10:19.385Z,5.65
2023-02-19T19:13:15.622Z,5.30
2023-02-19T19:16:17.725Z,5.57
2023-02-19T19:18:49.100Z,5.25
2023-02-19T19:21:17.827Z,5.15
2023-02-19T19:25:02.187Z,4.45
2023-02-19T19:30:50.873Z,5.05
2023-02-19T19:33:20.351Z,4.57
2023-02-19T19:35:51.148Z,4.38
2023-02-19T19:38:19.520Z,4.45
2023-02-19T19:40:47.859Z,4.03
2023-02-19T19:43:16.124Z,4.30
2023-02-19T19:45:50.198Z,4.18
2023-02-19T19:48:18.575Z,4.43
2023-02-19T19:50:49.424Z,4.32
2023-02-19T19:53:18.150Z,4.75
2023-02-19T19:55:47.644Z,4.18
2023-02-19T19:58:23.609Z,4.50
2023-02-19T20:00:55.501Z,4.65
2023-02-19T20:03:24.015Z,5.07
2023-02-19T20:05:52.407Z,5.30
2023-02-19T20:08:20.907Z,5.47
2023-02-19T20:10:58.088Z,5.20
2023-02-19T20:13:37.388Z,5.40
2023-02-19T20:16:06.980Z,5.60
2023-02-19T20:19:17.660Z,4.95
2023-02-19T20:25:13.464Z,5.03
2023-02-19T20:27:49.870Z,4.22
2023-02-19T20:32:48.408Z,2.80
2023-02-19T20:35:18.558Z,2.78
2023-02-19T20:37:54.335Z,2.65
2023-02-19T20:40:31.315Z,2.45
2023-02-19T20:45:40.403Z,4.38
2023-02-19T20:48:19.404Z,4.20
2023-02-19T20:50:48.397Z,3.83
2023-02-19T20:53:19.191Z,3.22
2023-02-19T20:55:47.451Z,2.70
2023-02-19T20:58:15.858Z,2.90
2023-02-19T21:00:47.261Z,3.00
2023-02-19T21:03:16.062Z,2.80
2023-02-19T21:05:45.830Z,2.92
2023-02-19T21:08:15.011Z,3.20
2023-02-19T21:10:43.308Z,3.38
2023-02-19T21:13:12.038Z,3.10
2023-02-19T21:15:46.509Z,3.17
2023-02-19T21:18:18.422Z,2.80
2023-02-19T21:20:46.844Z,3.10
2023-02-19T21:23:15.468Z,2.85
2023-02-19T21:25:46.405Z,2.38
2023-02-19T21:28:20.986Z,2.67
2023-02-19T21:30:49.884Z,2.85
2023-02-19T21:33:18.784Z,2.40
2023-02-19T21:35:50.141Z,2.40
2023-02-19T21:38:18.489Z,2.13
2023-02-19T21:43:31.270Z,1.80
2023-02-19T21:46:09.232Z,2.03
2023-02-19T21:49:20.795Z,2.40
2023-02-19T21:55:20.088Z,2.08
2023-02-19T21:58:21.809Z,1.95
2023-02-19T22:13:49.378Z,2.00
2023-02-19T22:16:21.232Z,1.63
2023-02-19T22:19:21.422Z,1.52
2023-02-19T22:21:51.415Z,1.50
2023-02-19T22:24:22.250Z,1.75
2023-02-19T22:26:56.434Z,1.50
2023-02-19T22:29:25.204Z,1.73
2023-02-19T22:35:20.296Z,1.50
2023-02-19T22:37:53.401Z,1.70
2023-02-19T22:40:21.678Z,1.20
2023-02-19T22:42:51.900Z,1.40
2023-02-19T22:45:20.197Z,1.67
2023-02-19T22:47:48.469Z,1.60
2023-02-19T22:50:23.301Z,1.42
2023-02-19T22:52:55.383Z,1.67
2023-02-19T22:55:23.948Z,1.58
2023-02-19T22:57:52.297Z,1.73
2023-02-19T23:00:22.444Z,1.88
2023-02-19T23:02:50.825Z,1.70
2023-02-19T23:05:19.107Z,1.40
2023-02-19T23:07:47.679Z,1.90
2023-02-19T23:10:16.063Z,1.50
2023-02-19T23:12:44.386Z,1.67
2023-02-19T23:15:12.986Z,1.80
2023-02-19T23:17:42.596Z,2.15
2023-02-19T23:20:11.181Z,1.63
2023-02-19T23:22:39.703Z,2.15
2023-02-19T23:25:08.594Z,1.80
2023-02-19T23:27:36.841Z,2.00
2023-02-19T23:30:05.682Z,1.70
2023-02-19T23:32:34.115Z,1.95
2023-02-19T23:35:05.475Z,1.70
2023-02-19T23:37:33.852Z,1.52
2023-02-19T23:40:05.076Z,1.80
2023-02-19T23:45:01.324Z,1.90
2023-02-19T23:47:30.703Z,2.40
2023-02-19T23:49:59.075Z,2.08
2023-02-19T23:52:27.365Z,1.70
2023-02-19T23:54:57.458Z,1.92
2023-02-19T23:57:25.784Z,2.10
2023-02-19T23:59:54.359Z,1.83
